createdAt,value
2022-12-02T00:00:00.852Z,85.65
2022-12-02T00:03:03.184Z,85.82
2022-12-02T00:06:12.099Z,85.42
2022-12-02T00:09:43.146Z,85.28
2022-12-02T00:12:45.567Z,84.41
2022-12-02T00:15:51.302Z,83.46
2022-12-02T00:18:54.924Z,83.21
2022-12-02T00:21:57.210Z,82.97
2022-12-02T00:24:59.552Z,83.01
2022-12-02T00:28:02.398Z,82.82
2022-12-02T00:31:04.862Z,82.79
2022-12-02T00:34:07.168Z,83.34
2022-12-02T00:37:09.422Z,83.79
2022-12-02T00:40:12.441Z,83.88
2022-12-02T00:43:33.631Z,83.98
2022-12-02T00:46:37.053Z,83.94
2022-12-02T00:49:39.742Z,84.41
2022-12-02T00:52:41.971Z,85.27
2022-12-02T00:55:44.230Z,85.69
2022-12-02T00:58:46.725Z,85.71
2022-12-02T01:01:49.270Z,86.36
2022-12-02T01:04:51.930Z,86.12
2022-12-02T01:07:54.333Z,86.58
2022-12-02T01:10:57.513Z,86.94
2022-12-02T01:13:59.985Z,86.96
2022-12-02T01:17:02.458Z,87.34
2022-12-02T01:20:06.219Z,87.68
2022-12-02T01:23:08.581Z,87.49
2022-12-02T01:26:10.936Z,87.04
2022-12-02T01:29:13.200Z,86.42
2022-12-02T01:32:15.612Z,86.02
2022-12-02T01:35:18.236Z,85.65
2022-12-02T01:38:20.640Z,85.23
2022-12-02T01:41:23.359Z,84.44
2022-12-02T01:44:26.101Z,84.21
2022-12-02T01:47:28.669Z,83.98
2022-12-02T01:50:32.308Z,83.98
2022-12-02T01:53:35.579Z,84.18
2022-12-02T01:56:38.119Z,84.13
2022-12-02T01:59:41.882Z,84.03
2022-12-02T02:02:45.413Z,83.88
2022-12-02T02:05:48.500Z,84.04
2022-12-02T02:08:52.051Z,83.90
2022-12-02T02:11:54.945Z,83.84
2022-12-02T02:14:57.663Z,83.80
2022-12-02T02:18:04.837Z,83.73
2022-12-02T02:21:10.898Z,83.50
2022-12-02T02:24:13.259Z,83.35
2022-12-02T02:27:15.642Z,83.26
2022-12-02T02:30:18.718Z,83.15
2022-12-02T02:33:23.937Z,83.49
2022-12-02T02:36:26.370Z,83.48
2022-12-02T02:39:28.877Z,83.45
2022-12-02T02:42:31.412Z,83.16
2022-12-02T02:45:36.481Z,83.01
2022-12-02T02:48:41.875Z,83.08
2022-12-02T02:51:44.352Z,83.28
2022-12-02T02:54:46.765Z,83.17
2022-12-02T02:57:49.423Z,82.97
2022-12-02T03:01:02.532Z,82.47
2022-12-02T03:04:10.611Z,82.26
2022-12-02T03:07:14.546Z,82.21
2022-12-02T03:10:17.632Z,82.21
2022-12-02T03:13:20.365Z,82.08
2022-12-02T03:16:25.034Z,82.09
2022-12-02T03:19:30.129Z,81.99
2022-12-02T03:22:32.853Z,81.60
2022-12-02T03:25:35.347Z,81.58
2022-12-02T03:28:37.665Z,81.34
2022-12-02T03:31:40.260Z,81.32
2022-12-02T03:34:42.629Z,81.85
2022-12-02T03:37:44.998Z,81.88
2022-12-02T03:40:47.767Z,81.97
2022-12-02T03:43:50.073Z,81.59
2022-12-02T03:46:52.571Z,80.46
2022-12-02T03:49:55.092Z,79.20
2022-12-02T03:52:57.678Z,79.00
2022-12-02T03:56:05.696Z,78.71
2022-12-02T03:59:09.774Z,78.10
2022-12-02T04:02:12.143Z,78.48
2022-12-02T04:05:14.445Z,78.15
2022-12-02T04:08:16.714Z,78.80
2022-12-02T04:11:18.985Z,79.08
2022-12-02T04:14:21.330Z,79.50
2022-12-02T04:17:23.634Z,79.42
2022-12-02T04:20:25.847Z,79.20
2022-12-02T04:23:28.201Z,79.18
2022-12-02T04:26:30.530Z,79.21
2022-12-02T04:29:32.895Z,79.23
2022-12-02T04:32:35.171Z,78.28
2022-12-02T04:35:37.557Z,77.97
2022-12-02T04:38:39.828Z,78.59
2022-12-02T04:41:42.083Z,78.28
2022-12-02T04:44:44.336Z,76.97
2022-12-02T04:47:46.624Z,76.28
2022-12-02T04:50:48.920Z,75.59
2022-12-02T04:53:51.280Z,75.79
2022-12-02T04:56:53.686Z,75.69
2022-12-02T04:59:56.485Z,75.44
2022-12-02T05:02:58.876Z,75.67
2022-12-02T05:06:01.282Z,75.68
2022-12-02T05:09:03.843Z,74.24
2022-12-02T05:12:06.286Z,74.13
2022-12-02T05:15:09.025Z,74.46
2022-12-02T05:18:11.286Z,74.36
2022-12-02T05:21:13.628Z,74.73
2022-12-02T05:24:16.806Z,74.60
2022-12-02T05:27:19.148Z,74.86
2022-12-02T05:30:21.491Z,74.99
2022-12-02T05:33:23.825Z,75.09
2022-12-02T05:36:26.094Z,75.23
2022-12-02T05:39:28.424Z,75.56
2022-12-02T05:42:30.708Z,75.04
2022-12-02T05:45:33.645Z,75.03
2022-12-02T05:48:35.975Z,75.73
2022-12-02T05:51:38.333Z,75.56
2022-12-02T05:54:40.615Z,75.57
2022-12-02T05:57:43.019Z,75.45
2022-12-02T06:00:48.382Z,75.42
2022-12-02T06:03:51.295Z,75.06
2022-12-02T06:06:55.018Z,75.00
2022-12-02T06:09:57.321Z,75.37
2022-12-02T06:13:12.881Z,74.92
2022-12-02T06:16:23.931Z,74.44
2022-12-02T06:19:40.590Z,74.73
2022-12-02T06:22:42.998Z,74.88
2022-12-02T06:25:46.787Z,74.38
2022-12-02T06:28:58.130Z,73.92
2022-12-02T06:32:01.007Z,73.96
2022-12-02T06:35:16.451Z,74.06
2022-12-02T06:38:27.902Z,73.43
2022-12-02T06:41:33.303Z,73.38
2022-12-02T06:44:54.128Z,73.02
2022-12-02T06:48:01.432Z,72.81
2022-12-02T06:51:22.187Z,72.22
2022-12-02T06:54:29.074Z,72.63
2022-12-02T06:57:31.689Z,72.12
2022-12-02T07:00:34.214Z,71.59
2022-12-02T07:03:45.037Z,71.29
2022-12-02T07:06:52.686Z,71.43
2022-12-02T07:09:56.552Z,71.46
2022-12-02T07:13:03.543Z,71.35
2022-12-02T07:16:42.553Z,70.36
2022-12-02T07:19:46.914Z,71.21
2022-12-02T07:22:58.959Z,70.80
2022-12-02T07:26:01.495Z,70.60
2022-12-02T07:29:15.883Z,69.83
2022-12-02T07:32:18.585Z,69.01
2022-12-02T07:45:05.048Z,66.75
2022-12-02T07:48:07.766Z,66.14
2022-12-02T07:51:10.250Z,65.98
2022-12-02T07:54:16.975Z,66.39
2022-12-02T07:57:19.702Z,66.41
2022-12-02T08:00:23.073Z,65.87
2022-12-02T08:03:25.659Z,65.58
2022-12-02T08:06:39.737Z,65.14
2022-12-02T08:09:42.609Z,65.34
2022-12-02T08:12:44.844Z,64.90
2022-12-02T08:15:52.658Z,64.74
2022-12-02T08:18:56.605Z,64.49
2022-12-02T08:21:59.124Z,63.97
2022-12-02T08:25:01.693Z,63.11
2022-12-02T08:28:04.007Z,62.74
2022-12-02T08:31:06.357Z,61.78
2022-12-02T08:34:08.669Z,61.73
2022-12-02T08:37:11.593Z,61.00
2022-12-02T08:40:14.672Z,60.79
2022-12-02T08:43:16.968Z,60.13
2022-12-02T08:46:19.226Z,61.08
2022-12-02T08:49:22.412Z,61.32
2022-12-02T08:52:24.793Z,60.54
2022-12-02T08:55:28.045Z,60.23
2022-12-02T08:58:30.385Z,60.22
2022-12-02T09:01:33.041Z,60.06
2022-12-02T09:04:35.431Z,60.20
2022-12-02T09:07:37.842Z,60.10
2022-12-02T09:10:40.305Z,60.43
2022-12-02T09:13:42.635Z,60.80
2022-12-02T09:16:44.902Z,61.00
2022-12-02T09:19:47.221Z,61.84
2022-12-02T09:22:49.823Z,62.31
2022-12-02T09:25:57.025Z,62.60
2022-12-02T09:28:59.342Z,61.85
2022-12-02T09:32:01.837Z,61.96
2022-12-02T09:35:04.512Z,62.11
2022-12-02T09:38:07.270Z,62.25
2022-12-02T09:41:10.009Z,61.06
2022-12-02T09:44:12.439Z,61.31
2022-12-02T09:47:15.643Z,61.39
2022-12-02T09:50:18.118Z,61.21
2022-12-02T09:53:21.747Z,60.90
2022-12-02T09:56:24.141Z,60.65
2022-12-02T09:59:27.369Z,60.04
2022-12-02T10:02:40.498Z,59.79
2022-12-02T10:05:44.130Z,59.38
2022-12-02T10:08:47.151Z,59.14
2022-12-02T10:11:50.025Z,59.18
2022-12-02T10:15:00.713Z,59.25
2022-12-02T10:18:10.804Z,58.87
2022-12-02T10:21:13.506Z,58.00
2022-12-02T10:24:15.818Z,58.06
2022-12-02T10:27:31.996Z,58.54
2022-12-02T10:30:34.407Z,58.59
2022-12-02T10:33:51.485Z,58.81
2022-12-02T10:36:54.691Z,58.56
2022-12-02T10:40:23.714Z,58.93
2022-12-02T10:43:25.971Z,58.88
2022-12-02T10:46:29.271Z,59.17
2022-12-02T10:49:36.786Z,59.31
2022-12-02T10:52:57.670Z,59.39
2022-12-02T10:55:59.972Z,59.93
2022-12-02T10:59:02.894Z,59.70
2022-12-02T11:02:22.928Z,59.77
2022-12-02T11:05:31.574Z,59.48
2022-12-02T11:08:34.033Z,59.52
2022-12-02T11:11:40.594Z,60.46
2022-12-02T11:14:42.782Z,59.72
2022-12-02T11:17:49.776Z,59.48
2022-12-02T11:21:15.172Z,59.30
2022-12-02T11:24:23.661Z,59.14
2022-12-02T11:27:25.966Z,58.86
2022-12-02T11:30:28.165Z,58.95
2022-12-02T11:33:53.104Z,57.94
2022-12-02T11:37:30.802Z,58.72
2022-12-02T11:40:33.092Z,58.78
2022-12-02T11:44:26.051Z,59.34
2022-12-02T11:47:32.371Z,59.64
2022-12-02T11:50:41.202Z,60.28
2022-12-02T11:53:51.145Z,59.75
2022-12-02T11:56:54.407Z,59.91
2022-12-02T11:59:58.071Z,60.03
2022-12-02T12:03:13.043Z,60.70
2022-12-02T12:06:16.805Z,59.71
2022-12-02T12:09:19.168Z,59.77
2022-12-02T12:12:21.510Z,58.79
2022-12-02T12:15:57.446Z,58.47
2022-12-02T12:19:24.202Z,58.17
2022-12-02T12:22:29.405Z,58.44
2022-12-02T12:25:42.601Z,58.71
2022-12-02T12:28:45.049Z,59.46
2022-12-02T12:31:47.408Z,59.38
2022-12-02T12:34:50.058Z,59.63
2022-12-02T12:37:52.861Z,60.24
2022-12-02T12:40:56.178Z,61.13
2022-12-02T12:43:58.945Z,61.28
2022-12-02T12:47:04.328Z,62.02
2022-12-02T12:50:07.563Z,61.59
2022-12-02T12:53:09.865Z,61.97
2022-12-02T12:56:12.307Z,63.26
2022-12-02T12:59:14.935Z,63.68
2022-12-02T13:02:18.618Z,64.50
2022-12-02T13:05:21.021Z,64.84
2022-12-02T13:08:23.479Z,69.30
2022-12-02T13:11:26.408Z,65.07
2022-12-02T13:14:28.772Z,65.94
2022-12-02T13:17:31.039Z,66.20
2022-12-02T13:20:33.492Z,66.55
2022-12-02T13:23:37.528Z,66.34
2022-12-02T13:26:39.847Z,66.56
2022-12-02T13:29:42.268Z,67.00
2022-12-02T13:32:45.260Z,67.43
2022-12-02T13:35:47.657Z,68.06
2022-12-02T13:38:49.996Z,68.55
2022-12-02T13:41:52.319Z,69.00
2022-12-02T13:44:55.000Z,69.35
2022-12-02T13:47:57.395Z,69.97
2022-12-02T13:51:02.512Z,70.70
2022-12-02T13:54:06.362Z,70.28
2022-12-02T13:57:09.002Z,69.84
2022-12-02T14:00:12.993Z,71.22
2022-12-02T14:03:15.309Z,71.81
2022-12-02T14:06:17.724Z,73.44
2022-12-02T14:09:20.077Z,73.01
2022-12-02T14:12:22.581Z,73.32
2022-12-02T14:15:25.366Z,72.65
2022-12-02T14:18:27.779Z,72.58
2022-12-02T14:21:30.248Z,73.35
2022-12-02T14:24:32.755Z,73.83
2022-12-02T14:27:35.149Z,74.09
2022-12-02T14:30:37.475Z,74.24
2022-12-02T14:34:09.564Z,74.77
2022-12-02T14:37:02.251Z,74.55
2022-12-02T14:40:05.523Z,75.27
2022-12-02T14:43:14.002Z,75.46
2022-12-02T14:46:16.748Z,76.18
2022-12-02T14:52:41.361Z,76.60
2022-12-02T14:55:43.725Z,76.15
2022-12-02T14:58:46.054Z,76.67
2022-12-02T15:01:48.419Z,76.92
2022-12-02T15:04:51.019Z,77.78
2022-12-02T15:07:53.619Z,78.15
2022-12-02T15:10:55.989Z,78.88
2022-12-02T15:13:58.253Z,78.43
2022-12-02T15:17:00.630Z,79.10
2022-12-02T15:20:03.076Z,79.33
2022-12-02T15:23:05.562Z,78.59
2022-12-02T15:26:07.942Z,77.75
2022-12-02T15:29:10.306Z,78.50
2022-12-02T15:32:18.834Z,78.52
2022-12-02T15:35:21.461Z,78.89
2022-12-02T15:38:24.836Z,78.88
2022-12-02T15:41:27.298Z,79.44
2022-12-02T15:44:29.563Z,79.41
2022-12-02T15:47:31.840Z,80.13
2022-12-02T15:50:34.242Z,80.40
2022-12-02T15:53:36.660Z,80.17
2022-12-02T15:56:39.237Z,79.70
2022-12-02T15:59:41.630Z,80.17
2022-12-02T16:02:44.026Z,79.95
2022-12-02T16:05:46.377Z,79.84
2022-12-02T16:08:54.945Z,80.37
2022-12-02T16:11:57.680Z,79.83
2022-12-02T16:15:00.600Z,80.57
2022-12-02T16:18:03.220Z,80.82
2022-12-02T16:21:05.745Z,80.82
2022-12-02T16:24:08.045Z,80.14
2022-12-02T16:27:10.899Z,80.69
2022-12-02T16:30:13.780Z,81.02
2022-12-02T16:33:15.979Z,80.62
2022-12-02T16:36:18.305Z,80.09
2022-12-02T16:39:20.539Z,81.12
2022-12-02T16:42:23.109Z,81.35
2022-12-02T16:45:25.424Z,81.41
2022-12-02T16:48:27.766Z,81.53
2022-12-02T16:51:30.071Z,80.92
2022-12-02T16:54:32.409Z,81.53
2022-12-02T16:57:34.698Z,81.46
2022-12-02T17:00:37.058Z,81.16
2022-12-02T17:03:39.390Z,81.84
2022-12-02T17:06:41.665Z,81.67
2022-12-02T17:09:44.497Z,81.46
2022-12-02T17:12:46.757Z,82.01
2022-12-02T17:15:49.367Z,82.09
2022-12-02T17:18:51.863Z,82.70
2022-12-02T17:21:54.136Z,82.37
2022-12-02T17:24:56.715Z,82.91
2022-12-02T17:27:58.979Z,81.87
2022-12-02T17:31:01.612Z,82.08
2022-12-02T17:34:03.872Z,82.13
2022-12-02T17:37:06.258Z,83.17
2022-12-02T17:40:08.928Z,82.56
2022-12-02T17:43:11.239Z,82.54
2022-12-02T17:46:14.373Z,82.71
2022-12-02T17:49:17.075Z,82.45
2022-12-02T17:52:20.880Z,81.83
2022-12-02T17:55:23.683Z,81.59
2022-12-02T17:58:26.476Z,81.54
2022-12-02T18:01:28.928Z,81.55
2022-12-02T18:04:31.212Z,82.20
2022-12-02T18:07:33.633Z,82.45
2022-12-02T18:10:35.969Z,82.52
2022-12-02T18:13:38.275Z,82.31
2022-12-02T18:16:40.693Z,82.98
2022-12-02T18:19:43.868Z,82.94
2022-12-02T18:22:46.493Z,83.00
2022-12-02T18:25:48.947Z,83.08
2022-12-02T18:28:51.186Z,82.76
2022-12-02T18:31:53.660Z,82.96
2022-12-02T18:34:56.084Z,83.18
2022-12-02T18:37:59.604Z,83.09
2022-12-02T18:41:02.387Z,82.64
2022-12-02T18:44:04.867Z,82.48
2022-12-02T18:47:07.216Z,82.67
2022-12-02T18:50:11.366Z,82.34
2022-12-02T18:53:13.686Z,82.46
2022-12-02T18:56:22.108Z,82.25
2022-12-02T18:59:26.521Z,82.43
2022-12-02T19:02:28.879Z,82.65
2022-12-02T19:05:31.198Z,83.01
2022-12-02T19:08:33.716Z,83.59
2022-12-02T19:11:36.041Z,83.18
2022-12-02T19:14:38.376Z,83.06
2022-12-02T19:17:40.647Z,83.07
2022-12-02T19:20:42.923Z,83.31
2022-12-02T19:23:45.886Z,82.97
2022-12-02T19:26:48.237Z,83.43
2022-12-02T19:29:50.789Z,82.46
2022-12-02T19:32:54.128Z,82.73
2022-12-02T19:35:56.481Z,82.47
2022-12-02T19:38:58.807Z,83.03
2022-12-02T19:42:01.040Z,83.05
2022-12-02T19:45:03.720Z,82.48
2022-12-02T19:48:06.208Z,82.82
2022-12-02T19:51:08.553Z,83.15
2022-12-02T19:54:10.822Z,82.22
2022-12-02T19:57:13.185Z,82.52
2022-12-02T20:00:16.757Z,81.52
2022-12-02T20:03:19.580Z,82.10
2022-12-02T20:06:21.877Z,82.09
2022-12-02T20:09:26.495Z,81.38
2022-12-02T20:12:28.827Z,82.13
2022-12-02T20:15:31.237Z,81.98
2022-12-02T20:18:33.874Z,81.79
2022-12-02T20:21:36.176Z,81.35
2022-12-02T20:24:38.522Z,80.83
2022-12-02T20:27:40.867Z,80.86
2022-12-02T20:30:43.292Z,80.62
2022-12-02T20:33:45.629Z,81.27
2022-12-02T20:36:47.977Z,81.19
2022-12-02T20:39:50.241Z,80.42
2022-12-02T20:42:52.737Z,80.59
2022-12-02T20:45:56.492Z,80.86
2022-12-02T20:48:58.837Z,80.91
2022-12-02T20:52:01.159Z,79.91
2022-12-02T20:55:06.539Z,81.11
2022-12-02T20:58:09.071Z,81.19
2022-12-02T21:01:12.933Z,81.03
2022-12-02T21:04:15.353Z,80.76
2022-12-02T21:07:17.660Z,80.98
2022-12-02T21:10:20.049Z,80.74
2022-12-02T21:13:22.639Z,81.25
2022-12-02T21:16:24.999Z,80.96
2022-12-02T21:19:27.298Z,80.58
2022-12-02T21:22:29.541Z,80.64
2022-12-02T21:25:32.721Z,81.14
2022-12-02T21:28:35.068Z,80.29
2022-12-02T21:31:38.160Z,80.71
2022-12-02T21:34:40.433Z,79.90
2022-12-02T21:37:42.705Z,80.48
2022-12-02T21:40:45.006Z,80.40
2022-12-02T21:43:47.281Z,80.85
2022-12-02T21:46:50.035Z,80.86
2022-12-02T21:49:52.347Z,81.63
2022-12-02T21:52:55.017Z,82.21
2022-12-02T21:55:57.259Z,82.21
2022-12-02T21:58:59.523Z,82.08
2022-12-02T22:02:01.958Z,81.40
2022-12-02T22:05:04.575Z,81.98
2022-12-02T22:08:07.012Z,81.32
2022-12-02T22:11:09.422Z,81.64
2022-12-02T22:14:11.695Z,81.36
2022-12-02T22:17:13.923Z,81.48
2022-12-02T22:20:18.204Z,81.76
2022-12-02T22:23:20.630Z,82.12
2022-12-02T22:26:22.898Z,82.23
2022-12-02T22:29:25.139Z,82.50
2022-12-02T22:32:27.554Z,83.10
2022-12-02T22:35:29.744Z,83.29
2022-12-02T22:38:32.088Z,83.20
2022-12-02T22:41:34.319Z,83.59
2022-12-02T22:44:36.591Z,82.99
2022-12-02T22:47:39.563Z,83.18
2022-12-02T22:50:41.882Z,82.88
2022-12-02T22:53:44.292Z,83.74
2022-12-02T22:56:46.550Z,83.72
2022-12-02T22:59:48.744Z,83.86
2022-12-02T23:02:51.092Z,83.93
2022-12-02T23:05:53.573Z,83.35
2022-12-02T23:08:55.831Z,83.70
2022-12-02T23:11:58.169Z,83.69
2022-12-02T23:15:34.001Z,83.80
2022-12-02T23:18:22.889Z,84.00
2022-12-02T23:21:25.273Z,84.46
2022-12-02T23:24:27.562Z,84.07
2022-12-02T23:27:29.912Z,84.04
2022-12-02T23:30:32.464Z,84.01
2022-12-02T23:33:34.843Z,83.73
2022-12-02T23:36:37.104Z,83.71
2022-12-02T23:39:39.362Z,83.78
2022-12-02T23:42:41.680Z,84.28
2022-12-02T23:45:44.044Z,83.91
2022-12-02T23:48:46.437Z,83.58
2022-12-02T23:51:48.722Z,83.34
2022-12-02T23:54:51.295Z,83.72
2022-12-02T23:57:53.816Z,83.01
